createdAt,value
2023-01-13T00:04:50.422Z,2.90
2023-01-13T00:09:51.973Z,4.38
2023-01-13T00:14:53.582Z,3.38
2023-01-13T00:19:56.177Z,4.53
2023-01-13T00:25:01.528Z,5.03
2023-01-13T00:30:04.706Z,6.65
2023-01-13T00:35:06.522Z,4.18
2023-01-13T00:40:08.870Z,4.88
2023-01-13T00:45:10.985Z,4.35
2023-01-13T00:50:15.663Z,4.20
2023-01-13T00:55:17.108Z,5.22
2023-01-13T01:00:19.153Z,4.72
2023-01-13T01:05:20.629Z,4.50
2023-01-13T01:10:25.559Z,5.82
2023-01-13T01:15:29.361Z,5.05
2023-01-13T01:20:30.807Z,4.47
2023-01-13T01:25:33.267Z,3.63
2023-01-13T01:30:34.917Z,3.85
2023-01-13T01:35:40.074Z,4.78
2023-01-13T01:40:44.220Z,3.75
2023-01-13T01:45:45.662Z,5.60
2023-01-13T01:50:48.627Z,5.53
2023-01-13T01:55:51.403Z,6.50
2023-01-13T02:00:59.083Z,6.57
2023-01-13T02:06:00.682Z,5.40
2023-01-13T02:11:02.143Z,6.47
2023-01-13T02:16:14.049Z,8.25
2023-01-13T02:21:34.119Z,5.43
2023-01-13T02:26:54.255Z,5.93
2023-01-13T02:32:03.406Z,6.30
2023-01-13T02:37:13.545Z,4.47
2023-01-13T02:42:44.266Z,6.45
2023-01-13T02:47:50.245Z,5.25
2023-01-13T02:52:58.903Z,6.00
2023-01-13T02:58:04.767Z,6.13
2023-01-13T03:03:06.236Z,5.60
2023-01-13T03:08:39.532Z,4.60
2023-01-13T03:13:44.550Z,5.50
2023-01-13T03:18:56.976Z,4.75
2023-01-13T03:24:13.065Z,5.72
2023-01-13T03:29:25.901Z,6.77
2023-01-13T03:34:34.878Z,6.07
2023-01-13T03:39:43.274Z,7.10
2023-01-13T03:44:55.673Z,6.20
2023-01-13T03:50:10.552Z,6.03
2023-01-13T03:55:20.547Z,5.88
2023-01-13T04:00:26.741Z,4.78
2023-01-13T04:05:28.906Z,4.57
2023-01-13T04:10:38.277Z,5.70
2023-01-13T04:15:45.101Z,4.55
2023-01-13T04:20:49.118Z,3.83
2023-01-13T04:25:51.674Z,3.63
2023-01-13T04:30:53.283Z,4.28
2023-01-13T04:35:55.162Z,3.95
2023-01-13T04:40:56.608Z,2.63
2023-01-13T04:45:58.170Z,3.85
2023-01-13T04:50:59.626Z,1.40
2023-01-13T04:56:01.076Z,1.52
2023-01-13T05:01:02.483Z,1.45
2023-01-13T05:06:03.978Z,1.63
2023-01-13T05:11:25.557Z,1.58
2023-01-13T05:16:45.753Z,1.88
2023-01-13T05:22:05.573Z,2.38
2023-01-13T05:27:07.095Z,2.10
2023-01-13T05:32:08.991Z,3.70
2023-01-13T05:37:12.182Z,1.25
2023-01-13T05:42:32.175Z,2.92
2023-01-13T05:47:33.746Z,1.95
2023-01-13T05:52:35.168Z,3.67
2023-01-13T05:57:36.569Z,2.85
2023-01-13T06:02:38.176Z,1.95
2023-01-13T06:07:39.559Z,2.92
2023-01-13T06:12:41.332Z,3.13
2023-01-13T06:17:42.866Z,2.80
2023-01-13T06:22:47.809Z,2.80
2023-01-13T06:27:49.489Z,2.33
2023-01-13T06:32:55.393Z,3.65
2023-01-13T06:37:59.689Z,2.63
2023-01-13T06:43:17.042Z,3.13
2023-01-13T06:48:33.033Z,4.50
2023-01-13T06:53:34.609Z,2.63
2023-01-13T06:58:36.028Z,3.03
2023-01-13T07:03:37.496Z,3.28
2023-01-13T07:08:38.921Z,2.05
2023-01-13T07:14:00.632Z,2.85
2023-01-13T07:19:02.030Z,2.60
2023-01-13T07:24:03.665Z,3.17
2023-01-13T07:29:05.120Z,2.70
2023-01-13T07:34:07.400Z,2.50
2023-01-13T07:39:08.866Z,5.65
2023-01-13T07:44:10.822Z,1.15
2023-01-13T07:49:13.130Z,3.42
2023-01-13T07:54:14.580Z,3.42
2023-01-13T07:59:16.228Z,1.73
2023-01-13T08:04:17.764Z,4.25
2023-01-13T08:09:19.385Z,3.75
2023-01-13T08:14:21.290Z,3.50
2023-01-13T08:19:22.730Z,3.20
2023-01-13T08:24:24.430Z,4.15
2023-01-13T08:29:25.893Z,2.17
2023-01-13T08:34:27.354Z,3.80
2023-01-13T08:39:28.835Z,5.30
2023-01-13T08:44:32.061Z,3.85
2023-01-13T08:49:33.523Z,4.40
2023-01-13T08:54:39.104Z,3.78
2023-01-13T08:59:40.972Z,3.45
2023-01-13T09:04:42.772Z,4.10
2023-01-13T09:09:44.583Z,3.03
2023-01-13T09:14:46.052Z,2.30
2023-01-13T09:19:47.633Z,1.58
2023-01-13T09:24:49.290Z,3.25
2023-01-13T09:29:50.730Z,2.38
2023-01-13T09:35:01.252Z,6.22
2023-01-13T09:40:07.226Z,4.05
2023-01-13T09:45:26.020Z,1.60
2023-01-13T09:50:46.954Z,3.35
2023-01-13T09:55:48.724Z,1.98
2023-01-13T10:01:05.377Z,2.45
2023-01-13T10:06:38.832Z,1.33
2023-01-13T10:12:05.139Z,2.30
2023-01-13T10:17:18.781Z,2.70
2023-01-13T10:22:48.367Z,3.28
2023-01-13T10:27:52.713Z,3.97
2023-01-13T10:33:00.739Z,6.13
2023-01-13T10:38:02.190Z,1.52
2023-01-13T10:43:06.526Z,3.00
2023-01-13T10:48:15.424Z,3.95
2023-01-13T10:53:22.233Z,1.98
2023-01-13T11:03:34.216Z,4.22
2023-01-13T11:08:45.854Z,4.72
2023-01-13T11:14:10.075Z,3.63
2023-01-13T11:19:17.096Z,3.75
2023-01-13T11:24:50.044Z,3.90
2023-01-13T11:30:03.004Z,3.03
2023-01-13T11:35:16.250Z,4.28
2023-01-13T11:40:29.017Z,1.73
2023-01-13T11:45:42.945Z,3.63
2023-01-13T11:51:00.513Z,3.65
2023-01-13T11:56:27.617Z,3.60
2023-01-13T12:01:49.142Z,3.28
2023-01-13T12:07:01.361Z,4.90
2023-01-13T12:12:34.845Z,4.80
2023-01-13T12:18:13.882Z,2.83
2023-01-13T12:23:37.194Z,4.07
2023-01-13T12:28:54.763Z,2.15
2023-01-13T12:34:18.060Z,3.33
2023-01-13T12:39:56.920Z,3.00
2023-01-13T12:45:11.680Z,3.22
2023-01-13T12:50:36.797Z,3.88
2023-01-13T12:55:38.300Z,3.65
2023-01-13T13:00:40.690Z,4.18
2023-01-13T13:06:03.357Z,2.97
2023-01-13T13:11:32.838Z,3.58
2023-01-13T13:16:47.745Z,2.53
2023-01-13T13:22:09.228Z,3.50
2023-01-13T13:27:27.917Z,3.13
2023-01-13T13:33:13.491Z,2.25
2023-01-13T13:38:51.993Z,2.88
2023-01-13T13:44:12.393Z,1.05
2023-01-13T13:49:21.125Z,3.28
2023-01-13T13:54:22.887Z,3.22
2023-01-13T13:59:32.887Z,1.95
2023-01-13T14:04:37.698Z,2.53
2023-01-13T14:09:45.758Z,2.78
2023-01-13T14:14:49.077Z,1.45
2023-01-13T14:19:53.224Z,2.45
2023-01-13T14:24:58.429Z,2.50
2023-01-13T14:30:01.630Z,4.25
2023-01-13T14:35:06.769Z,1.13
2023-01-13T14:40:36.531Z,2.30
2023-01-13T14:45:37.955Z,2.83
2023-01-13T14:50:39.532Z,3.75
2023-01-13T14:55:42.010Z,2.42
2023-01-13T15:00:43.482Z,2.55
2023-01-13T15:05:51.327Z,4.43
2023-01-13T15:10:59.888Z,3.92
2023-01-13T15:16:05.754Z,2.38
2023-01-13T15:21:09.523Z,2.95
2023-01-13T15:26:29.162Z,2.00
2023-01-13T15:31:30.683Z,2.90
2023-01-13T15:36:34.178Z,1.30
2023-01-13T15:41:53.894Z,1.98
2023-01-13T15:46:56.054Z,3.03
2023-01-13T15:51:57.482Z,4.18
2023-01-13T15:56:58.930Z,2.88
2023-01-13T16:02:00.332Z,1.48
2023-01-13T16:07:01.768Z,2.25
2023-01-13T16:12:03.301Z,1.92
2023-01-13T16:17:16.563Z,3.15
2023-01-13T16:22:18.775Z,3.97
2023-01-13T16:27:22.776Z,3.42
2023-01-13T16:32:24.239Z,2.08
2023-01-13T16:37:27.679Z,2.72
2023-01-13T16:42:29.165Z,2.53
2023-01-13T16:47:30.565Z,3.58
2023-01-13T16:52:32.013Z,1.27
2023-01-13T16:57:33.444Z,2.55
2023-01-13T17:02:34.867Z,5.05
2023-01-13T17:07:36.311Z,2.38
2023-01-13T17:12:37.751Z,1.70
2023-01-13T17:17:39.432Z,3.30
2023-01-13T17:22:42.478Z,3.30
2023-01-13T17:27:45.365Z,2.10
2023-01-13T17:32:46.967Z,1.48
2023-01-13T17:37:50.344Z,1.35
2023-01-13T17:42:51.776Z,1.33
2023-01-13T17:47:57.941Z,0.55
2023-01-13T17:52:59.382Z,1.05
2023-01-13T17:58:00.843Z,0.88
2023-01-13T18:03:02.356Z,1.42
2023-01-13T18:08:04.004Z,1.45
2023-01-13T18:13:06.447Z,1.88
2023-01-13T18:18:07.892Z,1.55
2023-01-13T18:23:46.409Z,0.77
2023-01-13T18:28:48.537Z,1.13
2023-01-13T18:33:50.003Z,1.75
2023-01-13T18:38:52.630Z,1.90
2023-01-13T18:43:54.043Z,1.83
2023-01-13T18:48:55.564Z,2.50
2023-01-13T18:53:57.214Z,2.95
2023-01-13T18:58:59.094Z,1.23
2023-01-13T19:04:05.489Z,1.90
2023-01-13T19:09:08.756Z,1.17
2023-01-13T19:14:10.167Z,0.55
2023-01-13T19:19:11.681Z,0.60
2023-01-13T19:24:14.348Z,0.95
2023-01-13T19:29:15.818Z,1.90
2023-01-13T19:34:17.452Z,1.23
2023-01-13T19:39:20.168Z,1.00
2023-01-13T19:44:40.315Z,0.80
2023-01-13T19:49:41.780Z,0.68
2023-01-13T19:54:47.098Z,1.73
2023-01-13T19:59:48.601Z,1.80
2023-01-13T20:04:56.093Z,2.05
2023-01-13T20:09:59.234Z,2.08
2023-01-13T20:15:01.082Z,1.90
2023-01-13T20:20:05.144Z,1.45
2023-01-13T20:25:08.596Z,1.25
2023-01-13T20:30:13.625Z,2.17
2023-01-13T20:35:15.492Z,2.10
2023-01-13T20:40:19.370Z,2.08
2023-01-13T20:45:26.861Z,2.38
2023-01-13T20:50:30.604Z,0.60
2023-01-13T20:55:33.280Z,1.13
2023-01-13T21:00:37.511Z,1.60
2023-01-13T21:05:39.112Z,1.63
2023-01-13T21:10:40.562Z,1.95
2023-01-13T21:15:48.309Z,1.50
2023-01-13T21:21:14.137Z,1.92
2023-01-13T21:26:16.890Z,4.78
2023-01-13T21:31:18.332Z,3.63
2023-01-13T21:36:20.097Z,2.10
2023-01-13T21:41:45.155Z,3.50
2023-01-13T21:47:06.503Z,3.75
2023-01-13T21:52:08.055Z,3.10
2023-01-13T21:57:09.449Z,2.58
2023-01-13T22:02:40.946Z,3.72
2023-01-13T22:07:43.991Z,2.13
2023-01-13T22:12:46.008Z,2.55
2023-01-13T22:17:51.413Z,2.60
2023-01-13T22:22:52.852Z,2.88
2023-01-13T22:28:03.469Z,2.40
2023-01-13T22:33:04.897Z,1.90
2023-01-13T22:38:07.322Z,2.83
2023-01-13T22:43:10.033Z,2.28
2023-01-13T22:48:12.333Z,1.58
2023-01-13T22:53:14.062Z,3.80
2023-01-13T22:58:18.822Z,3.00
2023-01-13T23:03:21.149Z,1.80
2023-01-13T23:08:25.511Z,3.03
2023-01-13T23:13:27.027Z,2.50
2023-01-13T23:18:32.092Z,2.83
2023-01-13T23:23:34.944Z,2.80
2023-01-13T23:28:38.444Z,3.88
2023-01-13T23:33:46.329Z,2.58
2023-01-13T23:38:47.870Z,3.78
2023-01-13T23:43:56.976Z,2.72
2023-01-13T23:48:58.569Z,2.67
2023-01-13T23:54:02.690Z,4.93
2023-01-13T23:59:04.143Z,2.83
